createdAt,value
2018-03-15T00:00:39.958Z,994.20
2018-03-15T00:02:33.256Z,994.11
2018-03-15T00:03:33.223Z,994.08
2018-03-15T00:05:26.558Z,994.07
2018-03-15T00:06:26.489Z,994.08
2018-03-15T00:08:19.818Z,994.07
2018-03-15T00:09:19.748Z,994.10
2018-03-15T00:11:13.059Z,994.06
2018-03-15T00:12:13.007Z,994.03
2018-03-15T00:14:06.347Z,994.03
2018-03-15T00:15:06.289Z,993.99
2018-03-15T00:16:59.678Z,994.02
2018-03-15T00:17:59.626Z,993.96
2018-03-15T00:19:52.964Z,993.99
2018-03-15T00:20:52.906Z,994.02
2018-03-15T00:22:46.203Z,993.99
2018-03-15T00:23:46.157Z,993.96
2018-03-15T00:25:39.597Z,993.93
2018-03-15T00:26:39.487Z,993.91
2018-03-15T00:28:32.807Z,993.91
2018-03-15T00:29:32.768Z,993.87
2018-03-15T00:31:26.077Z,993.92
2018-03-15T00:32:26.030Z,993.90
2018-03-15T00:34:18.978Z,993.91
2018-03-15T00:35:18.954Z,993.97
2018-03-15T00:37:12.225Z,993.94
2018-03-15T00:38:12.194Z,993.97
2018-03-15T00:40:05.592Z,993.94
2018-03-15T00:41:05.514Z,993.92
2018-03-15T00:42:58.822Z,993.91
2018-03-15T00:43:58.761Z,993.89
2018-03-15T00:45:52.115Z,993.87
2018-03-15T00:46:52.043Z,993.82
2018-03-15T00:48:45.363Z,993.79
2018-03-15T00:49:45.312Z,993.80
2018-03-15T00:51:38.637Z,993.77
2018-03-15T00:52:38.581Z,993.78
2018-03-15T00:54:31.923Z,993.74
2018-03-15T00:55:31.869Z,993.76
2018-03-15T00:57:25.149Z,993.65
2018-03-15T00:58:25.123Z,993.69
2018-03-15T01:00:18.442Z,993.73
2018-03-15T01:01:18.396Z,993.72
2018-03-15T01:03:11.693Z,993.71
2018-03-15T01:04:11.649Z,993.71
2018-03-15T01:06:04.963Z,993.68
2018-03-15T01:07:04.914Z,993.67
2018-03-15T01:08:58.222Z,993.70
2018-03-15T01:09:58.275Z,993.66
2018-03-15T01:11:51.495Z,993.58
2018-03-15T01:12:51.430Z,993.58
2018-03-15T01:14:44.994Z,993.54
2018-03-15T01:15:44.853Z,993.45
2018-03-15T01:17:38.175Z,993.49
2018-03-15T01:18:38.114Z,993.46
2018-03-15T01:20:31.430Z,993.39
2018-03-15T01:21:31.381Z,993.39
2018-03-15T01:23:24.696Z,993.34
2018-03-15T01:24:24.643Z,993.37
2018-03-15T01:26:17.980Z,993.23
2018-03-15T01:27:17.920Z,993.19
2018-03-15T01:29:11.241Z,993.09
2018-03-15T01:30:11.198Z,993.10
2018-03-15T01:32:04.558Z,993.05
2018-03-15T01:33:04.493Z,993.07
2018-03-15T01:34:57.784Z,993.06
2018-03-15T01:35:57.804Z,993.08
2018-03-15T01:37:51.105Z,993.00
2018-03-15T01:38:51.059Z,992.96
2018-03-15T01:40:44.381Z,992.93
2018-03-15T01:41:44.324Z,992.96
2018-03-15T01:43:37.636Z,992.96
2018-03-15T01:44:37.581Z,992.92
2018-03-15T01:46:30.916Z,992.98
2018-03-15T01:47:30.848Z,992.92
2018-03-15T01:49:24.161Z,992.91
2018-03-15T01:50:24.110Z,992.88
2018-03-15T01:52:18.438Z,992.82
2018-03-15T01:53:18.384Z,992.80
2018-03-15T01:55:11.686Z,992.76
2018-03-15T01:56:11.649Z,992.74
2018-03-15T01:58:04.970Z,992.72
2018-03-15T01:59:04.926Z,992.74
2018-03-15T02:00:58.226Z,992.78
2018-03-15T02:01:58.183Z,992.81
2018-03-15T02:03:51.494Z,992.79
2018-03-15T02:04:51.445Z,992.81
2018-03-15T02:06:44.735Z,992.66
2018-03-15T02:07:44.702Z,992.70
2018-03-15T02:09:38.035Z,992.75
2018-03-15T02:10:38.121Z,992.67
2018-03-15T02:12:31.297Z,992.71
2018-03-15T02:13:31.239Z,992.68
2018-03-15T02:15:24.681Z,992.65
2018-03-15T02:16:24.642Z,992.61
2018-03-15T02:18:17.965Z,992.57
2018-03-15T02:19:17.905Z,992.54
2018-03-15T02:21:11.206Z,992.56
2018-03-15T02:22:11.185Z,992.49
2018-03-15T02:24:04.495Z,992.48
2018-03-15T02:25:04.424Z,992.47
2018-03-15T02:26:57.730Z,992.46
2018-03-15T02:27:57.720Z,992.48
2018-03-15T02:29:51.005Z,992.46
2018-03-15T02:30:50.959Z,992.38
2018-03-15T02:32:44.261Z,992.36
2018-03-15T02:33:44.216Z,992.33
2018-03-15T02:35:37.536Z,992.29
2018-03-15T02:36:37.493Z,992.24
2018-03-15T02:38:31.821Z,992.20
2018-03-15T02:39:31.739Z,992.20
2018-03-15T02:41:25.060Z,992.16
2018-03-15T02:42:25.013Z,992.16
2018-03-15T02:44:18.337Z,992.14
2018-03-15T02:45:18.291Z,992.08
2018-03-15T02:47:11.590Z,992.05
2018-03-15T02:48:11.543Z,992.02
2018-03-15T02:50:04.988Z,992.03
2018-03-15T02:51:04.930Z,992.02
2018-03-15T02:52:58.225Z,991.98
2018-03-15T02:53:58.200Z,991.97
2018-03-15T02:55:51.529Z,991.95
2018-03-15T02:56:51.460Z,991.84
2018-03-15T02:58:44.772Z,991.80
2018-03-15T02:59:44.730Z,991.72
2018-03-15T03:01:38.066Z,991.74
2018-03-15T03:02:38.007Z,991.76
2018-03-15T03:04:31.286Z,991.73
2018-03-15T03:05:31.262Z,991.75
2018-03-15T03:07:24.667Z,991.72
2018-03-15T03:08:24.605Z,991.65
2018-03-15T03:10:18.896Z,991.67
2018-03-15T03:11:18.860Z,991.68
2018-03-15T03:13:12.172Z,991.70
2018-03-15T03:14:12.108Z,991.68
2018-03-15T03:16:04.951Z,991.65
2018-03-15T03:17:04.896Z,991.65
2018-03-15T03:18:57.846Z,991.62
2018-03-15T03:19:57.804Z,991.64
2018-03-15T03:21:51.131Z,991.59
2018-03-15T03:22:51.085Z,991.55
2018-03-15T03:24:44.406Z,991.59
2018-03-15T03:25:44.341Z,991.53
2018-03-15T03:27:37.664Z,991.53
2018-03-15T03:28:37.611Z,991.47
2018-03-15T03:30:30.914Z,991.48
2018-03-15T03:31:30.858Z,991.48
2018-03-15T03:33:24.371Z,991.42
2018-03-15T03:34:24.150Z,991.45
2018-03-15T03:36:17.455Z,991.43
2018-03-15T03:37:17.390Z,991.44
2018-03-15T03:39:10.698Z,991.44
2018-03-15T03:40:10.662Z,991.47
2018-03-15T03:42:03.971Z,991.42
2018-03-15T03:43:03.911Z,991.40
2018-03-15T03:44:57.213Z,991.32
2018-03-15T03:45:57.171Z,991.23
2018-03-15T03:47:50.507Z,991.21
2018-03-15T03:48:50.427Z,991.20
2018-03-15T03:50:43.742Z,991.24
2018-03-15T03:51:43.711Z,991.20
2018-03-15T03:53:37.031Z,991.17
2018-03-15T03:54:36.981Z,991.19
2018-03-15T03:56:30.286Z,991.09
2018-03-15T03:57:30.249Z,991.10
2018-03-15T03:59:23.797Z,991.07
2018-03-15T04:00:23.592Z,991.09
2018-03-15T04:02:16.909Z,991.06
2018-03-15T04:03:16.919Z,991.06
2018-03-15T04:05:10.181Z,991.01
2018-03-15T04:06:10.127Z,991.00
2018-03-15T04:08:04.449Z,990.98
2018-03-15T04:09:04.404Z,990.98
2018-03-15T04:10:58.691Z,990.99
2018-03-15T04:11:58.656Z,991.00
2018-03-15T04:13:52.011Z,990.99
2018-03-15T04:14:51.947Z,990.99
2018-03-15T04:16:45.310Z,990.95
2018-03-15T04:17:45.247Z,990.91
2018-03-15T04:19:38.562Z,990.88
2018-03-15T04:20:38.501Z,990.89
2018-03-15T04:22:31.797Z,990.81
2018-03-15T04:23:31.762Z,990.78
2018-03-15T04:25:25.173Z,990.78
2018-03-15T04:26:25.087Z,990.79
2018-03-15T04:28:18.445Z,990.81
2018-03-15T04:29:18.368Z,990.81
2018-03-15T04:31:11.698Z,990.84
2018-03-15T04:32:11.629Z,990.82
2018-03-15T04:34:06.062Z,990.82
2018-03-15T04:35:05.877Z,990.83
2018-03-15T04:36:59.211Z,990.79
2018-03-15T04:37:59.154Z,990.72
2018-03-15T04:39:52.480Z,990.73
2018-03-15T04:40:52.417Z,990.63
2018-03-15T04:42:45.868Z,990.67
2018-03-15T04:43:45.714Z,990.66
2018-03-15T04:45:39.015Z,990.61
2018-03-15T04:46:38.998Z,990.62
2018-03-15T04:48:32.307Z,990.55
2018-03-15T04:49:32.243Z,990.54
2018-03-15T04:51:25.928Z,990.50
2018-03-15T04:52:25.535Z,990.51
2018-03-15T04:54:18.843Z,990.53
2018-03-15T04:55:18.802Z,990.50
2018-03-15T04:57:12.154Z,990.45
2018-03-15T04:58:12.069Z,990.43
2018-03-15T05:00:05.460Z,990.31
2018-03-15T05:01:05.389Z,990.26
2018-03-15T05:02:58.715Z,990.21
2018-03-15T05:03:58.658Z,990.24
2018-03-15T05:05:51.977Z,990.17
2018-03-15T05:06:51.913Z,990.19
2018-03-15T05:08:45.236Z,990.17
2018-03-15T05:09:45.193Z,990.19
2018-03-15T05:11:38.518Z,990.13
2018-03-15T05:12:38.556Z,990.14
2018-03-15T05:14:31.749Z,990.25
2018-03-15T05:15:31.698Z,990.25
2018-03-15T05:17:25.041Z,990.25
2018-03-15T05:18:24.981Z,990.23
2018-03-15T05:20:18.272Z,990.22
2018-03-15T05:21:18.229Z,990.17
2018-03-15T05:23:11.559Z,990.18
2018-03-15T05:24:11.514Z,990.12
2018-03-15T05:26:04.978Z,990.13
2018-03-15T05:27:04.822Z,990.13
2018-03-15T05:28:58.126Z,990.11
2018-03-15T05:29:58.099Z,990.13
2018-03-15T05:31:51.401Z,990.15
2018-03-15T05:32:51.349Z,990.12
2018-03-15T05:34:44.663Z,990.09
2018-03-15T05:35:44.613Z,990.07
2018-03-15T05:37:37.927Z,990.09
2018-03-15T05:38:37.951Z,990.08
2018-03-15T05:40:31.182Z,990.01
2018-03-15T05:41:31.167Z,990.06
2018-03-15T05:43:24.457Z,990.04
2018-03-15T05:44:24.400Z,989.98
2018-03-15T05:46:17.720Z,989.91
2018-03-15T05:47:17.683Z,989.95
2018-03-15T05:49:12.001Z,989.95
2018-03-15T05:50:11.945Z,989.96
2018-03-15T05:52:05.249Z,990.01
2018-03-15T05:53:05.203Z,989.98
2018-03-15T05:54:58.535Z,989.99
2018-03-15T05:55:58.518Z,990.00
2018-03-15T05:57:51.820Z,990.08
2018-03-15T05:58:51.739Z,990.12
2018-03-15T06:00:45.064Z,990.16
2018-03-15T06:01:45.006Z,990.16
2018-03-15T06:03:38.329Z,990.17
2018-03-15T06:04:38.284Z,990.14
2018-03-15T06:06:31.624Z,990.13
2018-03-15T06:07:31.564Z,990.03
2018-03-15T06:09:24.857Z,990.05
2018-03-15T06:10:24.789Z,990.02
2018-03-15T06:12:18.088Z,990.04
2018-03-15T06:13:18.060Z,990.02
2018-03-15T06:15:11.430Z,990.03
2018-03-15T06:16:11.302Z,990.05
2018-03-15T06:18:04.606Z,990.05
2018-03-15T06:19:04.577Z,990.05
2018-03-15T06:20:57.894Z,990.04
2018-03-15T06:21:57.831Z,990.09
2018-03-15T06:23:51.322Z,990.05
2018-03-15T06:24:51.103Z,990.05
2018-03-15T06:26:44.406Z,990.01
2018-03-15T06:27:44.356Z,990.02
2018-03-15T06:29:37.696Z,989.96
2018-03-15T06:30:37.620Z,989.97
2018-03-15T06:32:30.985Z,989.94
2018-03-15T06:33:30.916Z,989.92
2018-03-15T06:35:24.246Z,989.92
2018-03-15T06:36:24.190Z,989.94
2018-03-15T06:38:17.491Z,989.90
2018-03-15T06:39:17.464Z,989.93
2018-03-15T06:41:10.934Z,989.89
2018-03-15T06:42:10.736Z,989.93
2018-03-15T06:44:04.033Z,989.83
2018-03-15T06:45:03.970Z,989.86
2018-03-15T06:46:57.313Z,989.90
2018-03-15T06:47:57.246Z,989.89
2018-03-15T06:49:50.678Z,989.87
2018-03-15T06:50:50.524Z,989.86
2018-03-15T06:52:43.840Z,989.87
2018-03-15T06:53:43.793Z,989.85
2018-03-15T06:55:37.114Z,989.84
2018-03-15T06:56:37.049Z,989.83
2018-03-15T06:58:30.416Z,989.84
2018-03-15T06:59:30.363Z,989.87
2018-03-15T07:01:23.699Z,989.82
2018-03-15T07:02:23.631Z,989.83
2018-03-15T07:04:16.952Z,989.81
2018-03-15T07:05:16.915Z,989.84
2018-03-15T07:07:10.301Z,989.85
2018-03-15T07:08:10.191Z,989.82
2018-03-15T07:10:03.479Z,989.80
2018-03-15T07:11:03.454Z,989.85
2018-03-15T07:12:56.792Z,989.85
2018-03-15T07:13:56.740Z,989.88
2018-03-15T07:15:50.057Z,989.86
2018-03-15T07:16:50.007Z,989.87
2018-03-15T07:18:43.297Z,989.81
2018-03-15T07:19:43.282Z,989.82
2018-03-15T07:21:36.585Z,989.83
2018-03-15T07:22:36.509Z,989.85
2018-03-15T07:24:29.439Z,989.95
2018-03-15T07:25:29.400Z,989.98
2018-03-15T07:27:22.725Z,989.95
2018-03-15T07:28:22.662Z,989.93
2018-03-15T07:30:15.986Z,989.88
2018-03-15T07:31:15.933Z,989.84
2018-03-15T07:33:09.249Z,989.89
2018-03-15T07:34:09.186Z,989.89
2018-03-15T07:36:02.488Z,989.91
2018-03-15T07:37:02.459Z,989.91
2018-03-15T07:38:55.766Z,989.90
2018-03-15T07:39:55.716Z,989.87
2018-03-15T07:41:49.020Z,989.89
2018-03-15T07:42:48.980Z,989.89
2018-03-15T07:44:42.340Z,989.90
2018-03-15T07:45:42.227Z,989.89
2018-03-15T07:47:35.564Z,989.90
2018-03-15T07:48:35.500Z,989.84
2018-03-15T07:50:28.802Z,989.84
2018-03-15T07:51:28.775Z,989.82
2018-03-15T07:53:22.288Z,989.84
2018-03-15T07:54:22.225Z,989.82
2018-03-15T07:56:15.532Z,989.78
2018-03-15T07:57:15.505Z,989.78
2018-03-15T07:59:08.807Z,989.78
2018-03-15T08:00:08.780Z,989.72
2018-03-15T08:02:02.089Z,989.81
2018-03-15T08:03:02.056Z,989.81
2018-03-15T08:04:55.415Z,989.81
2018-03-15T08:05:55.371Z,989.77
2018-03-15T08:07:48.673Z,989.76
2018-03-15T08:08:48.723Z,989.76
2018-03-15T08:10:41.972Z,989.76
2018-03-15T08:11:41.903Z,989.74
2018-03-15T08:13:35.256Z,989.77
2018-03-15T08:14:35.180Z,989.72
2018-03-15T08:16:28.486Z,989.71
2018-03-15T08:17:28.452Z,989.69
2018-03-15T08:19:21.776Z,989.63
2018-03-15T08:20:21.726Z,989.63
2018-03-15T08:22:15.068Z,989.68
2018-03-15T08:23:15.046Z,989.72
2018-03-15T08:25:08.351Z,989.73
2018-03-15T08:26:08.295Z,989.69
2018-03-15T08:28:01.594Z,989.66
2018-03-15T08:29:01.562Z,989.63
2018-03-15T08:30:54.881Z,989.59
2018-03-15T08:31:54.831Z,989.61
2018-03-15T08:33:48.140Z,989.59
2018-03-15T08:34:48.183Z,989.55
2018-03-15T08:36:41.413Z,989.60
2018-03-15T08:37:41.365Z,989.55
2018-03-15T08:39:34.693Z,989.59
2018-03-15T08:40:34.620Z,989.60
2018-03-15T08:42:27.953Z,989.58
2018-03-15T08:43:27.893Z,989.48
2018-03-15T08:45:21.239Z,989.44
2018-03-15T08:46:21.163Z,989.43
2018-03-15T08:48:14.469Z,989.41
2018-03-15T08:49:14.442Z,989.38
2018-03-15T08:51:07.762Z,989.39
2018-03-15T08:52:07.706Z,989.39
2018-03-15T08:54:01.070Z,989.34
2018-03-15T08:55:00.962Z,989.34
2018-03-15T08:56:54.288Z,989.23
2018-03-15T08:57:54.232Z,989.23
2018-03-15T08:59:47.546Z,989.20
2018-03-15T09:00:47.514Z,989.13
2018-03-15T09:02:40.899Z,989.10
2018-03-15T09:03:40.805Z,989.12
2018-03-15T09:05:34.103Z,989.09
2018-03-15T09:06:34.038Z,989.03
2018-03-15T09:08:27.365Z,989.03
2018-03-15T09:09:27.325Z,989.09
2018-03-15T09:11:20.663Z,989.05
2018-03-15T09:12:20.598Z,989.07
2018-03-15T09:14:13.941Z,989.03
2018-03-15T09:15:13.868Z,989.08
2018-03-15T09:17:07.187Z,989.08
2018-03-15T09:18:07.141Z,989.07
2018-03-15T09:20:00.518Z,989.13
2018-03-15T09:21:00.417Z,989.20
2018-03-15T09:22:53.758Z,989.16
2018-03-15T09:23:53.688Z,989.12
2018-03-15T09:25:46.998Z,989.11
2018-03-15T09:26:46.969Z,989.07
2018-03-15T09:28:40.334Z,989.06
2018-03-15T09:29:40.245Z,989.06
2018-03-15T09:31:33.557Z,989.03
2018-03-15T09:32:33.495Z,989.04
2018-03-15T09:34:26.893Z,989.00
2018-03-15T09:35:26.769Z,989.05
2018-03-15T09:37:20.227Z,988.99
2018-03-15T09:38:20.046Z,988.95
2018-03-15T09:40:13.359Z,989.01
2018-03-15T09:41:13.317Z,988.95
2018-03-15T09:43:06.668Z,988.91
2018-03-15T09:44:06.584Z,988.92
2018-03-15T09:45:59.974Z,988.89
2018-03-15T09:46:59.863Z,988.91
2018-03-15T09:48:53.197Z,988.87
2018-03-15T09:49:53.137Z,988.86
2018-03-15T09:51:46.444Z,988.83
2018-03-15T09:52:46.401Z,988.82
2018-03-15T09:54:39.803Z,988.84
2018-03-15T09:55:39.694Z,988.79
2018-03-15T09:57:32.984Z,988.83
2018-03-15T09:58:32.968Z,988.82
2018-03-15T10:00:26.282Z,988.93
2018-03-15T10:01:26.224Z,988.91
2018-03-15T10:03:19.559Z,989.02
2018-03-15T10:04:19.513Z,989.08
2018-03-15T10:06:12.865Z,989.18
2018-03-15T10:07:12.829Z,989.12
2018-03-15T10:09:06.129Z,989.07
2018-03-15T10:10:06.077Z,989.10
2018-03-15T10:11:59.453Z,989.04
2018-03-15T10:12:59.378Z,989.10
2018-03-15T10:14:52.725Z,989.04
2018-03-15T10:15:52.661Z,989.00
2018-03-15T10:17:45.978Z,989.05
2018-03-15T10:18:45.942Z,989.01
2018-03-15T10:20:39.399Z,989.01
2018-03-15T10:21:39.253Z,989.03
2018-03-15T10:23:32.572Z,989.07
2018-03-15T10:24:32.515Z,989.06
2018-03-15T10:26:25.863Z,989.08
2018-03-15T10:27:25.805Z,988.98
2018-03-15T10:29:19.168Z,988.93
2018-03-15T10:30:19.084Z,988.94
2018-03-15T10:32:12.453Z,988.91
2018-03-15T10:33:12.374Z,988.75
2018-03-15T10:35:05.819Z,988.93
2018-03-15T10:36:05.822Z,989.04
2018-03-15T10:37:59.133Z,989.02
2018-03-15T10:38:59.079Z,988.60
2018-03-15T10:40:52.384Z,988.54
2018-03-15T10:41:52.358Z,988.59
2018-03-15T10:43:45.730Z,988.68
2018-03-15T10:44:45.659Z,988.58
2018-03-15T10:46:39.000Z,988.75
2018-03-15T10:47:38.945Z,988.74
2018-03-15T10:49:32.399Z,988.86
2018-03-15T10:50:32.235Z,988.88
2018-03-15T10:52:26.461Z,988.78
2018-03-15T10:53:26.395Z,988.81
2018-03-15T10:55:19.856Z,988.76
2018-03-15T10:56:19.713Z,988.72
2018-03-15T10:58:13.915Z,988.73
2018-03-15T10:59:13.862Z,988.77
2018-03-15T11:01:07.231Z,988.72
2018-03-15T11:02:07.181Z,988.72
2018-03-15T11:04:00.545Z,988.72
2018-03-15T11:05:00.495Z,988.72
2018-03-15T11:06:53.908Z,988.66
2018-03-15T11:07:53.861Z,988.70
2018-03-15T11:09:47.179Z,988.70
2018-03-15T11:10:47.143Z,988.71
2018-03-15T11:12:40.513Z,988.87
2018-03-15T11:13:40.438Z,988.88
2018-03-15T11:15:33.909Z,988.73
2018-03-15T11:16:33.713Z,988.76
2018-03-15T11:18:27.038Z,988.77
2018-03-15T11:19:27.002Z,988.71
2018-03-15T11:21:20.345Z,988.78
2018-03-15T11:22:20.286Z,988.59
2018-03-15T11:24:13.619Z,988.59
2018-03-15T11:25:13.571Z,988.66
2018-03-15T11:27:06.905Z,988.65
2018-03-15T11:28:06.868Z,988.47
2018-03-15T11:30:00.213Z,988.25
2018-03-15T11:31:00.149Z,988.22
2018-03-15T11:32:53.621Z,988.24
2018-03-15T11:33:53.424Z,988.24
2018-03-15T11:35:46.746Z,988.22
2018-03-15T11:36:46.726Z,988.18
2018-03-15T11:38:40.059Z,988.17
2018-03-15T11:39:39.990Z,988.18
2018-03-15T11:41:33.393Z,988.21
2018-03-15T11:42:33.282Z,988.20
2018-03-15T11:44:27.625Z,988.12
2018-03-15T11:45:27.566Z,988.11
2018-03-15T11:47:20.893Z,988.11
2018-03-15T11:48:20.856Z,988.09
2018-03-15T11:50:14.211Z,988.11
2018-03-15T11:51:14.144Z,988.07
2018-03-15T11:53:07.475Z,988.00
2018-03-15T11:54:07.437Z,988.05
2018-03-15T11:56:00.884Z,988.02
2018-03-15T11:57:00.831Z,987.95
2018-03-15T11:58:54.060Z,987.94
2018-03-15T11:59:54.004Z,987.99
2018-03-15T12:01:47.453Z,987.90
2018-03-15T12:02:47.394Z,987.93
2018-03-15T12:04:40.734Z,987.92
2018-03-15T12:05:40.676Z,987.85
2018-03-15T12:07:34.038Z,987.83
2018-03-15T12:08:33.981Z,987.85
2018-03-15T12:10:27.327Z,987.84
2018-03-15T12:11:27.284Z,987.84
2018-03-15T12:13:20.594Z,987.72
2018-03-15T12:14:20.566Z,987.77
2018-03-15T12:16:13.876Z,987.70
2018-03-15T12:17:13.887Z,987.71
2018-03-15T12:19:07.320Z,987.68
2018-03-15T12:20:07.130Z,987.66
2018-03-15T12:22:00.456Z,987.61
2018-03-15T12:23:00.415Z,987.62
2018-03-15T12:24:53.743Z,987.60
2018-03-15T12:25:53.682Z,987.56
2018-03-15T12:27:47.016Z,987.58
2018-03-15T12:28:47.018Z,987.56
2018-03-15T12:30:40.341Z,987.53
2018-03-15T12:31:40.268Z,987.52
2018-03-15T12:33:33.610Z,987.54
2018-03-15T12:34:33.571Z,987.58
2018-03-15T12:36:26.961Z,987.50
2018-03-15T12:37:26.833Z,987.49
2018-03-15T12:39:20.176Z,987.43
2018-03-15T12:40:20.122Z,987.45
2018-03-15T12:42:13.467Z,987.45
2018-03-15T12:43:13.393Z,987.43
2018-03-15T12:45:06.756Z,987.40
2018-03-15T12:46:06.685Z,987.43
2018-03-15T12:48:00.001Z,987.35
2018-03-15T12:48:59.950Z,987.37
2018-03-15T12:50:53.250Z,987.32
2018-03-15T12:51:53.231Z,987.32
2018-03-15T12:53:46.563Z,987.26
2018-03-15T12:54:46.520Z,987.26
2018-03-15T12:56:39.832Z,987.20
2018-03-15T12:57:39.771Z,987.22
2018-03-15T12:59:33.093Z,987.17
2018-03-15T13:00:33.058Z,987.14
2018-03-15T13:02:26.485Z,987.15
2018-03-15T13:03:26.352Z,987.11
2018-03-15T13:05:19.663Z,987.18
2018-03-15T13:06:19.606Z,987.22
2018-03-15T13:08:12.978Z,987.16
2018-03-15T13:09:12.897Z,987.13
2018-03-15T13:11:06.246Z,987.12
2018-03-15T13:12:06.164Z,987.13
2018-03-15T13:13:59.513Z,987.16
2018-03-15T13:14:59.436Z,987.20
2018-03-15T13:16:52.748Z,987.19
2018-03-15T13:17:52.709Z,987.13
2018-03-15T13:19:46.094Z,987.08
2018-03-15T13:20:45.998Z,987.05
2018-03-15T13:22:39.303Z,987.10
2018-03-15T13:23:39.276Z,987.07
2018-03-15T13:25:32.604Z,987.14
2018-03-15T13:26:32.550Z,987.10
2018-03-15T13:28:25.880Z,987.02
2018-03-15T13:29:25.823Z,987.07
2018-03-15T13:31:19.153Z,987.04
2018-03-15T13:32:19.109Z,986.95
2018-03-15T13:34:12.423Z,987.05
2018-03-15T13:35:12.400Z,987.02
2018-03-15T13:37:05.752Z,986.98
2018-03-15T13:38:05.684Z,986.95
2018-03-15T13:39:58.981Z,986.96
2018-03-15T13:40:58.958Z,986.93
2018-03-15T13:42:52.302Z,986.94
2018-03-15T13:43:52.242Z,986.91
2018-03-15T13:45:45.659Z,986.97
2018-03-15T13:46:45.553Z,986.95
2018-03-15T13:48:38.867Z,986.88
2018-03-15T13:49:38.851Z,986.90
2018-03-15T13:51:32.179Z,986.91
2018-03-15T13:52:32.122Z,986.88
2018-03-15T13:54:25.439Z,986.85
2018-03-15T13:55:25.412Z,986.80
2018-03-15T13:57:18.702Z,986.79
2018-03-15T13:58:18.663Z,986.74
2018-03-15T14:00:11.992Z,986.75
2018-03-15T14:01:11.937Z,986.72
2018-03-15T14:03:05.279Z,986.68
2018-03-15T14:04:05.209Z,986.71
2018-03-15T14:05:59.673Z,986.69
2018-03-15T14:06:59.638Z,986.70
2018-03-15T14:08:52.989Z,986.67
2018-03-15T14:09:52.931Z,986.69
2018-03-15T14:11:46.262Z,986.68
2018-03-15T14:12:46.205Z,986.73
2018-03-15T14:14:39.525Z,986.71
2018-03-15T14:15:39.496Z,986.73
2018-03-15T14:17:32.817Z,986.80
2018-03-15T14:18:32.767Z,986.79
2018-03-15T14:20:26.067Z,986.82
2018-03-15T14:21:26.037Z,986.74
2018-03-15T14:23:19.428Z,986.78
2018-03-15T14:24:19.313Z,986.78
2018-03-15T14:26:12.628Z,986.83
2018-03-15T14:27:12.595Z,986.85
2018-03-15T14:29:05.932Z,986.91
2018-03-15T14:30:05.863Z,986.85
2018-03-15T14:31:59.373Z,986.96
2018-03-15T14:32:59.191Z,986.96
2018-03-15T14:34:52.484Z,986.92
2018-03-15T14:35:52.430Z,986.93
2018-03-15T14:37:46.792Z,986.92
2018-03-15T14:38:46.718Z,986.96
2018-03-15T14:40:40.022Z,987.00
2018-03-15T14:41:39.998Z,986.99
2018-03-15T14:43:33.319Z,987.04
2018-03-15T14:44:33.264Z,987.03
2018-03-15T14:46:26.567Z,987.01
2018-03-15T14:47:26.541Z,987.02
2018-03-15T14:49:19.931Z,987.01
2018-03-15T14:50:19.816Z,987.05
2018-03-15T14:52:13.133Z,987.04
2018-03-15T14:53:13.095Z,987.03
2018-03-15T14:55:06.447Z,987.05
2018-03-15T14:56:06.372Z,987.03
2018-03-15T14:57:59.820Z,987.04
2018-03-15T14:58:59.649Z,986.98
2018-03-15T15:00:53.005Z,986.98
2018-03-15T15:01:52.948Z,986.97
2018-03-15T15:03:46.277Z,986.95
2018-03-15T15:04:46.218Z,986.92
2018-03-15T15:06:39.509Z,986.94
2018-03-15T15:07:39.513Z,987.00
2018-03-15T15:09:32.829Z,986.97
2018-03-15T15:10:32.793Z,986.95
2018-03-15T15:12:26.094Z,986.97
2018-03-15T15:13:26.040Z,986.98
2018-03-15T15:15:19.430Z,986.94
2018-03-15T15:16:19.320Z,986.92
2018-03-15T15:18:12.752Z,986.94
2018-03-15T15:19:12.615Z,986.96
2018-03-15T15:21:05.928Z,986.97
2018-03-15T15:22:05.865Z,986.97
2018-03-15T15:23:59.208Z,986.97
2018-03-15T15:24:59.160Z,987.00
2018-03-15T15:26:52.452Z,987.02
2018-03-15T15:27:52.412Z,986.98
2018-03-15T15:29:45.755Z,986.98
2018-03-15T15:30:45.690Z,986.94
2018-03-15T15:32:39.145Z,986.92
2018-03-15T15:33:38.968Z,986.93
2018-03-15T15:35:32.305Z,986.88
2018-03-15T15:36:32.231Z,986.89
2018-03-15T15:38:25.559Z,986.90
2018-03-15T15:39:25.521Z,986.90
2018-03-15T15:41:18.913Z,986.93
2018-03-15T15:42:18.785Z,986.94
2018-03-15T15:44:12.122Z,986.89
2018-03-15T15:45:12.068Z,986.94
2018-03-15T15:47:05.405Z,986.96
2018-03-15T15:48:05.374Z,986.97
2018-03-15T15:49:58.775Z,986.99
2018-03-15T15:50:58.661Z,987.00
2018-03-15T15:52:51.950Z,987.01
2018-03-15T15:53:51.908Z,987.07
2018-03-15T15:55:45.272Z,987.05
2018-03-15T15:56:45.198Z,987.07
2018-03-15T15:58:38.517Z,987.05
2018-03-15T15:59:38.479Z,987.07
2018-03-15T16:01:31.803Z,987.11
2018-03-15T16:02:31.756Z,987.09
2018-03-15T16:04:25.056Z,987.11
2018-03-15T16:05:25.029Z,987.14
2018-03-15T16:07:18.447Z,987.08
2018-03-15T16:08:18.297Z,987.13
2018-03-15T16:10:11.623Z,987.12
2018-03-15T16:11:11.599Z,987.11
2018-03-15T16:13:04.906Z,987.11
2018-03-15T16:14:04.864Z,987.14
2018-03-15T16:15:58.238Z,987.12
2018-03-15T16:16:58.127Z,987.08
2018-03-15T16:18:51.442Z,987.10
2018-03-15T16:19:51.401Z,987.13
2018-03-15T16:21:45.070Z,987.11
2018-03-15T16:22:45.014Z,987.10
2018-03-15T16:24:38.371Z,987.14
2018-03-15T16:25:38.335Z,987.12
2018-03-15T16:27:31.739Z,987.18
2018-03-15T16:28:31.566Z,987.21
2018-03-15T16:30:24.947Z,987.21
2018-03-15T16:31:24.847Z,987.24
2018-03-15T16:33:18.180Z,987.21
2018-03-15T16:34:18.121Z,987.25
2018-03-15T16:36:11.480Z,987.28
2018-03-15T16:37:11.395Z,987.26
2018-03-15T16:39:04.726Z,987.26
2018-03-15T16:40:04.686Z,987.25
2018-03-15T16:41:57.980Z,987.22
2018-03-15T16:42:57.949Z,987.19
2018-03-15T16:44:51.410Z,987.24
2018-03-15T16:45:51.217Z,987.20
2018-03-15T16:47:44.690Z,987.18
2018-03-15T16:48:44.617Z,987.20
2018-03-15T16:50:37.965Z,987.17
2018-03-15T16:51:37.895Z,987.18
2018-03-15T16:53:31.241Z,987.17
2018-03-15T16:54:31.163Z,987.14
2018-03-15T16:56:24.469Z,987.16
2018-03-15T16:57:24.445Z,987.16
2018-03-15T16:59:17.786Z,987.13
2018-03-15T17:00:17.701Z,987.14
2018-03-15T17:02:11.017Z,987.15
2018-03-15T17:03:10.996Z,987.13
2018-03-15T17:05:04.317Z,987.17
2018-03-15T17:06:04.261Z,987.17
2018-03-15T17:07:57.675Z,987.22
2018-03-15T17:08:57.551Z,987.22
2018-03-15T17:10:51.049Z,987.25
2018-03-15T17:11:50.823Z,987.28
2018-03-15T17:13:44.141Z,987.26
2018-03-15T17:14:44.093Z,987.21
2018-03-15T17:16:37.435Z,987.26
2018-03-15T17:17:37.364Z,987.26
2018-03-15T17:19:30.672Z,987.25
2018-03-15T17:20:30.680Z,987.30
2018-03-15T17:22:23.976Z,987.33
2018-03-15T17:23:23.916Z,987.35
2018-03-15T17:25:17.231Z,987.35
2018-03-15T17:26:17.183Z,987.31
2018-03-15T17:28:10.627Z,987.38
2018-03-15T17:29:10.535Z,987.41
2018-03-15T17:31:03.824Z,987.37
2018-03-15T17:32:03.775Z,987.39
2018-03-15T17:33:57.079Z,987.45
2018-03-15T17:34:57.066Z,987.49
2018-03-15T17:36:50.427Z,987.53
2018-03-15T17:37:50.339Z,987.57
2018-03-15T17:39:43.669Z,987.61
2018-03-15T17:40:43.593Z,987.63
2018-03-15T17:42:36.941Z,987.76
2018-03-15T17:43:36.876Z,987.77
2018-03-15T17:45:30.244Z,987.81
2018-03-15T17:46:30.147Z,987.88
2018-03-15T17:48:23.499Z,987.95
2018-03-15T17:49:23.428Z,987.96
2018-03-15T17:51:16.767Z,988.08
2018-03-15T17:52:16.743Z,988.09
2018-03-15T17:54:09.559Z,988.13
2018-03-15T17:55:09.497Z,988.14
2018-03-15T17:57:02.470Z,988.15
2018-03-15T17:58:02.400Z,988.16
2018-03-15T17:59:55.392Z,988.17
2018-03-15T18:00:55.503Z,988.18